sensor_id;sensor_type;location;lat;lon;timestamp;pressure;altitude;pressure_sealevel;temperature;humidity
28344;BME280;15597;50.914;6.638;2022-10-26T00:00:51;100674.31;;;17.11;57.04
28344;BME280;15597;50.914;6.638;2022-10-26T00:03:17;100670.84;;;17.11;57.01
28344;BME280;15597;50.914;6.638;2022-10-26T00:05:43;100670.88;;;17.09;56.95
28344;BME280;15597;50.914;6.638;2022-10-26T00:08:09;100665.59;;;17.09;57.11
28344;BME280;15597;50.914;6.638;2022-10-26T00:10:36;100665.59;;;17.09;57.05
28344;BME280;15597;50.914;6.638;2022-10-26T00:13:04;100661.19;;;17.10;56.86
28344;BME280;15597;50.914;6.638;2022-10-26T00:15:30;100663.75;;;17.11;57.03
28344;BME280;15597;50.914;6.638;2022-10-26T00:17:56;100659.47;;;17.08;57.22
28344;BME280;15597;50.914;6.638;2022-10-26T00:20:22;100664.75;;;17.08;57.15
28344;BME280;15597;50.914;6.638;2022-10-26T00:22:47;100662.16;;;17.07;57.04
28344;BME280;15597;50.914;6.638;2022-10-26T00:25:13;100647.34;;;17.04;57.25
28344;BME280;15597;50.914;6.638;2022-10-26T00:27:38;100656.25;;;17.02;57.50
28344;BME280;15597;50.914;6.638;2022-10-26T00:30:05;100649.34;;;16.99;57.39
28344;BME280;15597;50.914;6.638;2022-10-26T00:32:32;100650.28;;;16.98;57.52
28344;BME280;15597;50.914;6.638;2022-10-26T00:34:57;100651.19;;;16.97;57.54
28344;BME280;15597;50.914;6.638;2022-10-26T00:37:23;100645.16;;;16.93;58.01
28344;BME280;15597;50.914;6.638;2022-10-26T00:39:48;100645.22;;;16.92;57.84
28344;BME280;15597;50.914;6.638;2022-10-26T00:42:18;100648.00;;;16.89;57.76
28344;BME280;15597;50.914;6.638;2022-10-26T00:47:16;100649.84;;;16.87;58.03
28344;BME280;15597;50.914;6.638;2022-10-26T00:49:44;100653.56;;;16.83;58.10
28344;BME280;15597;50.914;6.638;2022-10-26T00:52:13;100648.38;;;16.81;58.11
28344;BME280;15597;50.914;6.638;2022-10-26T00:54:39;100655.34;;;16.63;58.47
28344;BME280;15597;50.914;6.638;2022-10-26T00:57:05;100645.56;;;16.65;58.70
28344;BME280;15597;50.914;6.638;2022-10-26T00:59:31;100643.72;;;16.67;58.73
28344;BME280;15597;50.914;6.638;2022-10-26T01:01:57;100643.66;;;16.69;58.65
28344;BME280;15597;50.914;6.638;2022-10-26T01:04:23;100639.16;;;16.71;58.54
28344;BME280;15597;50.914;6.638;2022-10-26T01:06:49;100632.09;;;16.71;58.65
28344;BME280;15597;50.914;6.638;2022-10-26T01:09:15;100635.59;;;16.72;58.70
28344;BME280;15597;50.914;6.638;2022-10-26T01:11:42;100624.16;;;16.71;58.76
28344;BME280;15597;50.914;6.638;2022-10-26T01:14:09;100624.16;;;16.71;58.76
28344;BME280;15597;50.914;6.638;2022-10-26T01:27:46;100610.44;;;16.63;59.27
28344;BME280;15597;50.914;6.638;2022-10-26T01:30:16;100599.81;;;16.64;59.21
28344;BME280;15597;50.914;6.638;2022-10-26T01:35:38;100605.03;;;16.66;58.99
28344;BME280;15597;50.914;6.638;2022-10-26T01:38:19;100595.38;;;16.65;59.19
28344;BME280;15597;50.914;6.638;2022-10-26T01:40:58;100597.09;;;16.66;59.17
28344;BME280;15597;50.914;6.638;2022-10-26T01:43:29;100600.53;;;16.68;59.28
28344;BME280;15597;50.914;6.638;2022-10-26T01:45:56;100589.03;;;16.69;59.21
28344;BME280;15597;50.914;6.638;2022-10-26T01:48:24;100591.63;;;16.71;59.16
28344;BME280;15597;50.914;6.638;2022-10-26T01:50:52;100588.88;;;16.72;59.04
28344;BME280;15597;50.914;6.638;2022-10-26T01:53:19;100583.59;;;16.72;59.07
28344;BME280;15597;50.914;6.638;2022-10-26T01:55:49;100585.31;;;16.73;59.01
28344;BME280;15597;50.914;6.638;2022-10-26T02:00:57;100576.44;;;16.74;58.94
28344;BME280;15597;50.914;6.638;2022-10-26T02:06:40;100573.19;;;16.69;59.23
28344;BME280;15597;50.914;6.638;2022-10-26T02:09:27;100573.25;;;16.68;59.40
28344;BME280;15597;50.914;6.638;2022-10-26T02:11:57;100573.03;;;16.72;59.47
28344;BME280;15597;50.914;6.638;2022-10-26T02:14:43;100576.75;;;16.68;59.31
28344;BME280;15597;50.914;6.638;2022-10-26T02:19:44;100573.03;;;16.72;59.40
28344;BME280;15597;50.914;6.638;2022-10-26T02:22:18;100574.75;;;16.73;59.47
28344;BME280;15597;50.914;6.638;2022-10-26T02:24:47;100571.94;;;16.76;59.43
28344;BME280;15597;50.914;6.638;2022-10-26T02:27:19;100576.41;;;16.76;59.48
28344;BME280;15597;50.914;6.638;2022-10-26T02:29:46;100573.66;;;16.77;59.46
28344;BME280;15597;50.914;6.638;2022-10-26T02:32:13;100568.38;;;16.77;59.44
28344;BME280;15597;50.914;6.638;2022-10-26T02:34:43;100579.88;;;16.76;59.58
28344;BME280;15597;50.914;6.638;2022-10-26T02:37:11;100572.72;;;16.78;59.47
28344;BME280;15597;50.914;6.638;2022-10-26T02:39:39;100567.44;;;16.78;59.43
28344;BME280;15597;50.914;6.638;2022-10-26T02:42:07;100571.75;;;16.81;59.55
28344;BME280;15597;50.914;6.638;2022-10-26T02:47:11;100557.31;;;16.69;59.73
28344;BME280;15597;50.914;6.638;2022-10-26T02:49:37;100546.59;;;16.72;59.84
28344;BME280;15597;50.914;6.638;2022-10-26T02:52:38;100552.03;;;16.69;59.82
28344;BME280;15597;50.914;6.638;2022-10-26T02:55:31;100550.31;;;16.68;59.79
28344;BME280;15597;50.914;6.638;2022-10-26T02:58:01;100543.03;;;16.73;59.87
28344;BME280;15597;50.914;6.638;2022-10-26T03:00:28;100546.47;;;16.75;59.93
28344;BME280;15597;50.914;6.638;2022-10-26T03:02:57;100544.59;;;16.77;59.88
28344;BME280;15597;50.914;6.638;2022-10-26T03:05:26;100532.06;;;16.63;60.04
28344;BME280;15597;50.914;6.638;2022-10-26T03:07:53;100535.25;;;16.70;60.12
28344;BME280;15597;50.914;6.638;2022-10-26T03:10:20;100540.25;;;16.76;60.03
28344;BME280;15597;50.914;6.638;2022-10-26T03:12:46;100546.16;;;16.82;59.80
28344;BME280;15597;50.914;6.638;2022-10-26T03:15:12;100543.38;;;16.85;59.73
28344;BME280;15597;50.914;6.638;2022-10-26T03:17:37;100546.00;;;16.85;59.90
28344;BME280;15597;50.914;6.638;2022-10-26T03:20:07;100543.16;;;16.89;59.74
28344;BME280;15597;50.914;6.638;2022-10-26T03:22:32;100542.13;;;16.92;59.62
28344;BME280;15597;50.914;6.638;2022-10-26T03:24:58;100554.28;;;16.96;59.59
28344;BME280;15597;50.914;6.638;2022-10-26T03:27:23;100552.47;;;16.98;59.62
28344;BME280;15597;50.914;6.638;2022-10-26T03:29:49;100543.63;;;16.99;59.65
28344;BME280;15597;50.914;6.638;2022-10-26T03:32:14;100548.75;;;17.02;59.58
28344;BME280;15597;50.914;6.638;2022-10-26T03:34:40;100550.47;;;17.03;59.52
28344;BME280;15597;50.914;6.638;2022-10-26T03:37:05;100548.66;;;17.04;59.39
28344;BME280;15597;50.914;6.638;2022-10-26T03:39:30;100553.00;;;17.05;59.61
28344;BME280;15597;50.914;6.638;2022-10-26T03:41:57;100552.03;;;17.07;59.60
28344;BME280;15597;50.914;6.638;2022-10-26T03:44:23;100545.81;;;17.08;59.45
28344;BME280;15597;50.914;6.638;2022-10-26T03:46:49;100551.88;;;17.11;59.46
28344;BME280;15597;50.914;6.638;2022-10-26T03:49:14;100546.59;;;17.11;59.60
28344;BME280;15597;50.914;6.638;2022-10-26T03:51:40;100552.72;;;17.11;59.61
28344;BME280;15597;50.914;6.638;2022-10-26T03:54:05;100558.88;;;17.12;59.53
28344;BME280;15597;50.914;6.638;2022-10-26T03:56:31;100556.28;;;17.10;59.47
28344;BME280;15597;50.914;6.638;2022-10-26T03:58:57;100550.16;;;17.10;59.53
28344;BME280;15597;50.914;6.638;2022-10-26T04:01:22;100548.34;;;17.10;59.60
28344;BME280;15597;50.914;6.638;2022-10-26T04:03:48;100553.56;;;17.12;59.75
28344;BME280;15597;50.914;6.638;2022-10-26T04:06:13;100549.91;;;17.14;59.76
28344;BME280;15597;50.914;6.638;2022-10-26T04:08:39;100549.91;;;17.14;59.78
28344;BME280;15597;50.914;6.638;2022-10-26T04:11:04;100551.56;;;17.17;59.59
28344;BME280;15597;50.914;6.638;2022-10-26T04:13:30;100544.56;;;17.16;59.82
28344;BME280;15597;50.914;6.638;2022-10-26T04:15:55;100553.28;;;17.18;59.82
28344;BME280;15597;50.914;6.638;2022-10-26T04:18:21;100554.09;;;17.18;59.88
28344;BME280;15597;50.914;6.638;2022-10-26T04:20:46;100548.75;;;17.20;59.79
28344;BME280;15597;50.914;6.638;2022-10-26T04:23:14;100547.13;;;17.17;59.89
28344;BME280;15597;50.914;6.638;2022-10-26T04:25:40;100555.81;;;17.19;59.82
28344;BME280;15597;50.914;6.638;2022-10-26T04:28:07;100548.75;;;17.20;59.95
28344;BME280;15597;50.914;6.638;2022-10-26T04:30:34;100548.75;;;17.20;60.07
28344;BME280;15597;50.914;6.638;2022-10-26T04:33:00;100542.44;;;17.22;60.11
28344;BME280;15597;50.914;6.638;2022-10-26T04:35:26;100548.59;;;17.23;60.03
28344;BME280;15597;50.914;6.638;2022-10-26T04:38:04;100546.13;;;17.20;60.18
28344;BME280;15597;50.914;6.638;2022-10-26T04:40:31;100538.97;;;17.22;60.28
28344;BME280;15597;50.914;6.638;2022-10-26T04:42:57;100554.81;;;17.22;60.42
28344;BME280;15597;50.914;6.638;2022-10-26T04:45:22;100549.53;;;17.22;60.39
28344;BME280;15597;50.914;6.638;2022-10-26T04:48:05;100546.28;;;17.17;60.49
28344;BME280;15597;50.914;6.638;2022-10-26T04:50:31;100542.44;;;17.22;60.51
28344;BME280;15597;50.914;6.638;2022-10-26T04:52:57;100545.97;;;17.23;60.56
28344;BME280;15597;50.914;6.638;2022-10-26T04:55:23;100529.06;;;17.26;60.78
28344;BME280;15597;50.914;6.638;2022-10-26T04:57:49;100529.94;;;17.26;60.94
28344;BME280;15597;50.914;6.638;2022-10-26T05:00:14;100526.53;;;17.24;61.13
28344;BME280;15597;50.914;6.638;2022-10-26T05:02:40;100528.38;;;17.22;61.30
28344;BME280;15597;50.914;6.638;2022-10-26T05:05:05;100538.09;;;17.21;61.22
28344;BME280;15597;50.914;6.638;2022-10-26T05:07:31;100538.97;;;17.22;61.52
28344;BME280;15597;50.914;6.638;2022-10-26T05:09:56;100538.09;;;17.21;61.41
28344;BME280;15597;50.914;6.638;2022-10-26T05:12:22;100538.97;;;17.22;61.54
28344;BME280;15597;50.914;6.638;2022-10-26T05:14:47;100542.44;;;17.22;61.61
28344;BME280;15597;50.914;6.638;2022-10-26T05:17:13;100538.97;;;17.22;61.51
28344;BME280;15597;50.914;6.638;2022-10-26T05:19:38;100543.31;;;17.23;61.56
28344;BME280;15597;50.914;6.638;2022-10-26T05:22:04;100541.47;;;17.25;61.54
28344;BME280;15597;50.914;6.638;2022-10-26T05:24:30;100550.22;;;17.26;61.55
28344;BME280;15597;50.914;6.638;2022-10-26T05:26:55;100551.09;;;17.26;61.63
28344;BME280;15597;50.914;6.638;2022-10-26T05:29:21;100552.81;;;17.27;61.76
28344;BME280;15597;50.914;6.638;2022-10-26T05:31:46;100556.38;;;17.26;61.76
28344;BME280;15597;50.914;6.638;2022-10-26T05:34:12;100554.69;;;17.25;61.58
28344;BME280;15597;50.914;6.638;2022-10-26T05:36:37;100563.53;;;17.24;61.46
28344;BME280;15597;50.914;6.638;2022-10-26T05:39:03;100565.25;;;17.25;61.77
28344;BME280;15597;50.914;6.638;2022-10-26T05:41:28;100573.03;;;17.28;61.66
28344;BME280;15597;50.914;6.638;2022-10-26T05:43:54;100561.59;;;17.28;61.60
28344;BME280;15597;50.914;6.638;2022-10-26T05:46:19;100568.53;;;17.30;61.57
28344;BME280;15597;50.914;6.638;2022-10-26T05:48:45;100572.88;;;17.31;61.61
28344;BME280;15597;50.914;6.638;2022-10-26T05:51:10;100579.88;;;17.32;61.65
28344;BME280;15597;50.914;6.638;2022-10-26T05:53:37;100586.09;;;17.31;61.79
28344;BME280;15597;50.914;6.638;2022-10-26T05:56:16;100583.59;;;17.28;61.79
28344;BME280;15597;50.914;6.638;2022-10-26T05:58:43;100590.47;;;17.32;61.84
28344;BME280;15597;50.914;6.638;2022-10-26T06:06:43;100602.13;;;17.28;62.05
28344;BME280;15597;50.914;6.638;2022-10-26T06:09:11;100607.25;;;17.31;61.87
28344;BME280;15597;50.914;6.638;2022-10-26T06:11:38;100609.91;;;17.31;61.96
28344;BME280;15597;50.914;6.638;2022-10-26T06:14:04;100612.53;;;17.31;62.24
28344;BME280;15597;50.914;6.638;2022-10-26T06:30:19;100613.16;;;17.19;62.55
28344;BME280;15597;50.914;6.638;2022-10-26T06:32:48;100606.16;;;17.18;62.69
28344;BME280;15597;50.914;6.638;2022-10-26T06:37:54;100613.00;;;17.22;62.54
28344;BME280;15597;50.914;6.638;2022-10-26T06:40:22;100607.56;;;17.25;62.75
28344;BME280;15597;50.914;6.638;2022-10-26T06:42:48;100603.97;;;17.26;62.74
28344;BME280;15597;50.914;6.638;2022-10-26T06:45:15;100606.47;;;17.29;63.07
28344;BME280;15597;50.914;6.638;2022-10-26T06:47:56;100603.19;;;17.24;62.92
28344;BME280;15597;50.914;6.638;2022-10-26T06:55:42;100605.69;;;17.27;63.41
28344;BME280;15597;50.914;6.638;2022-10-26T06:58:17;100620.00;;;17.23;63.48
28344;BME280;15597;50.914;6.638;2022-10-26T07:00:43;100629.50;;;17.27;63.32
28344;BME280;15597;50.914;6.638;2022-10-26T07:03:09;100616.28;;;17.27;63.48
28344;BME280;15597;50.914;6.638;2022-10-26T07:05:35;100619.69;;;17.29;63.66
28344;BME280;15597;50.914;6.638;2022-10-26T07:08:00;100616.97;;;17.31;63.67
28344;BME280;15597;50.914;6.638;2022-10-26T07:10:26;100625.69;;;17.33;63.55
28344;BME280;15597;50.914;6.638;2022-10-26T07:12:51;100621.25;;;17.33;63.57
28344;BME280;15597;50.914;6.638;2022-10-26T07:15:17;100627.31;;;17.35;63.41
28344;BME280;15597;50.914;6.638;2022-10-26T07:17:43;100629.03;;;17.36;63.81
28344;BME280;15597;50.914;6.638;2022-10-26T07:20:11;100633.41;;;17.37;63.68
28344;BME280;15597;50.914;6.638;2022-10-26T07:22:36;100626.25;;;17.40;63.39
28344;BME280;15597;50.914;6.638;2022-10-26T07:25:02;100624.44;;;17.40;63.67
28344;BME280;15597;50.914;6.638;2022-10-26T07:27:28;100626.16;;;17.41;64.07
28344;BME280;15597;50.914;6.638;2022-10-26T07:29:53;100624.38;;;17.42;63.36
28344;BME280;15597;50.914;6.638;2022-10-26T07:32:19;100616.44;;;17.42;63.26
28344;BME280;15597;50.914;6.638;2022-10-26T07:34:44;100619.94;;;17.42;63.54
28344;BME280;15597;50.914;6.638;2022-10-26T07:37:10;100619.94;;;17.42;63.21
28344;BME280;15597;50.914;6.638;2022-10-26T07:39:35;100619.94;;;17.42;63.36
28344;BME280;15597;50.914;6.638;2022-10-26T07:42:01;100624.38;;;17.42;63.68
28344;BME280;15597;50.914;6.638;2022-10-26T07:44:26;100627.03;;;17.42;63.49
28344;BME280;15597;50.914;6.638;2022-10-26T07:46:52;100624.38;;;17.42;63.50
28344;BME280;15597;50.914;6.638;2022-10-26T07:49:18;100628.88;;;17.40;63.51
28344;BME280;15597;50.914;6.638;2022-10-26T07:51:43;100621.78;;;17.40;63.48
28344;BME280;15597;50.914;6.638;2022-10-26T07:54:09;100620.09;;;17.39;63.52
28344;BME280;15597;50.914;6.638;2022-10-26T07:56:34;100626.25;;;17.40;63.20
28344;BME280;15597;50.914;6.638;2022-10-26T07:59:00;100631.53;;;17.40;63.63
28344;BME280;15597;50.914;6.638;2022-10-26T08:01:25;100634.97;;;17.42;63.40
28344;BME280;15597;50.914;6.638;2022-10-26T08:03:52;100644.50;;;17.44;63.76
28344;BME280;15597;50.914;6.638;2022-10-26T08:06:18;100647.94;;;17.46;63.72
28344;BME280;15597;50.914;6.638;2022-10-26T08:08:44;100634.66;;;17.48;63.74
28344;BME280;15597;50.914;6.638;2022-10-26T08:11:11;100638.06;;;17.50;63.50
28344;BME280;15597;50.914;6.638;2022-10-26T08:13:37;100650.22;;;17.54;63.66
28344;BME280;15597;50.914;6.638;2022-10-26T08:16:04;100648.34;;;17.56;63.74
28344;BME280;15597;50.914;6.638;2022-10-26T08:18:30;100655.28;;;17.59;63.92
28344;BME280;15597;50.914;6.638;2022-10-26T08:21:04;100658.63;;;17.62;63.72
28344;BME280;15597;50.914;6.638;2022-10-26T08:23:30;100668.91;;;17.69;63.75
28344;BME280;15597;50.914;6.638;2022-10-26T08:25:59;100661.75;;;17.71;63.49
28344;BME280;15597;50.914;6.638;2022-10-26T08:28:26;100665.72;;;17.79;63.88
28344;BME280;15597;50.914;6.638;2022-10-26T08:30:52;100662.81;;;17.84;63.64
28344;BME280;15597;50.914;6.638;2022-10-26T08:33:17;100665.31;;;17.87;63.31
28344;BME280;15597;50.914;6.638;2022-10-26T08:35:43;100666.09;;;17.89;63.33
28344;BME280;15597;50.914;6.638;2022-10-26T08:38:08;100671.94;;;17.96;63.55
28344;BME280;15597;50.914;6.638;2022-10-26T08:40:37;100674.38;;;18.01;63.12
28344;BME280;15597;50.914;6.638;2022-10-26T08:43:15;100665.22;;;18.08;63.07
28344;BME280;15597;50.914;6.638;2022-10-26T08:45:56;100663.19;;;18.13;63.18
28344;BME280;15597;50.914;6.638;2022-10-26T08:48:27;100659.44;;;18.17;63.35
28344;BME280;15597;50.914;6.638;2022-10-26T08:50:56;100662.53;;;18.25;63.32
28344;BME280;15597;50.914;6.638;2022-10-26T08:53:42;100680.19;;;18.25;63.00
28344;BME280;15597;50.914;6.638;2022-10-26T08:56:23;100685.44;;;18.27;63.16
28344;BME280;15597;50.914;6.638;2022-10-26T08:58:59;100688.69;;;18.32;62.82
28344;BME280;15597;50.914;6.638;2022-10-26T09:01:30;100684.94;;;18.36;62.70
28344;BME280;15597;50.914;6.638;2022-10-26T09:03:56;100702.28;;;18.42;62.67
28344;BME280;15597;50.914;6.638;2022-10-26T09:25:59;100721.34;;;18.66;62.24
28344;BME280;15597;50.914;6.638;2022-10-26T09:28:27;100735.97;;;18.73;62.20
28344;BME280;15597;50.914;6.638;2022-10-26T09:30:57;100745.41;;;18.79;62.12
28344;BME280;15597;50.914;6.638;2022-10-26T09:33:24;100737.03;;;18.87;62.01
28344;BME280;15597;50.914;6.638;2022-10-26T09:36:06;100725.25;;;18.92;62.08
28344;BME280;15597;50.914;6.638;2022-10-26T09:38:37;100729.44;;;18.96;62.56
28344;BME280;15597;50.914;6.638;2022-10-26T09:41:26;100734.34;;;19.04;62.60
28344;BME280;15597;50.914;6.638;2022-10-26T09:44:05;100732.16;;;19.12;63.03
28344;BME280;15597;50.914;6.638;2022-10-26T09:47:00;100735.22;;;19.21;62.99
28344;BME280;15597;50.914;6.638;2022-10-26T09:49:34;100739.84;;;19.33;63.12
28344;BME280;15597;50.914;6.638;2022-10-26T09:52:01;100740.88;;;19.47;62.85
28344;BME280;15597;50.914;6.638;2022-10-26T09:54:26;100737.75;;;19.54;62.06
28344;BME280;15597;50.914;6.638;2022-10-26T09:56:55;100755.16;;;19.60;62.18
28344;BME280;15597;50.914;6.638;2022-10-26T09:59:23;100753.84;;;19.67;61.93
28344;BME280;15597;50.914;6.638;2022-10-26T10:01:49;100758.97;;;19.70;61.03
28344;BME280;15597;50.914;6.638;2022-10-26T10:04:18;100762.41;;;19.73;60.90
28344;BME280;15597;50.914;6.638;2022-10-26T10:07:12;100771.50;;;19.68;61.35
28344;BME280;15597;50.914;6.638;2022-10-26T10:09:38;100779.09;;;19.75;60.83
28344;BME280;15597;50.914;6.638;2022-10-26T10:12:04;100776.38;;;19.76;60.56
28344;BME280;15597;50.914;6.638;2022-10-26T10:14:56;100785.19;;;19.77;61.32
28344;BME280;15597;50.914;6.638;2022-10-26T10:17:23;100790.91;;;19.85;60.78
28344;BME280;15597;50.914;6.638;2022-10-26T10:19:50;100789.19;;;19.84;60.11
28344;BME280;15597;50.914;6.638;2022-10-26T10:27:18;100801.88;;;19.79;60.35
28344;BME280;15597;50.914;6.638;2022-10-26T10:29:57;100806.25;;;19.80;60.91
28344;BME280;15597;50.914;6.638;2022-10-26T10:32:36;100807.28;;;19.93;59.98
28344;BME280;15597;50.914;6.638;2022-10-26T10:35:22;100814.31;;;19.94;60.48
28344;BME280;15597;50.914;6.638;2022-10-26T10:38:15;100815.66;;;20.02;60.33
28344;BME280;15597;50.914;6.638;2022-10-26T10:40:52;100823.72;;;20.16;60.52
28344;BME280;15597;50.914;6.638;2022-10-26T10:43:43;100826.59;;;20.27;60.07
28344;BME280;15597;50.914;6.638;2022-10-26T10:46:23;100825.88;;;20.40;59.87
28344;BME280;15597;50.914;6.638;2022-10-26T10:48:53;100827.22;;;20.47;59.42
28344;BME280;15597;50.914;6.638;2022-10-26T10:51:40;100837.66;;;20.50;59.56
28344;BME280;15597;50.914;6.638;2022-10-26T10:54:22;100828.56;;;20.54;59.08
28344;BME280;15597;50.914;6.638;2022-10-26T11:00:08;100841.78;;;20.70;59.78
28344;BME280;15597;50.914;6.638;2022-10-26T11:05:32;100858.09;;;20.95;58.91
28344;BME280;15597;50.914;6.638;2022-10-26T11:11:01;100855.81;;;21.03;58.51
28344;BME280;15597;50.914;6.638;2022-10-26T11:13:36;100859.03;;;21.08;58.52
28344;BME280;15597;50.914;6.638;2022-10-26T11:16:12;100852.00;;;21.07;58.73
28344;BME280;15597;50.914;6.638;2022-10-26T11:21:43;100859.63;;;21.28;57.70
28344;BME280;15597;50.914;6.638;2022-10-26T11:24:41;100856.00;;;21.29;57.93
28344;BME280;15597;50.914;6.638;2022-10-26T11:27:29;100848.59;;;21.34;58.07
28344;BME280;15597;50.914;6.638;2022-10-26T11:30:05;100850.13;;;21.38;57.19
28344;BME280;15597;50.914;6.638;2022-10-26T11:32:46;100854.47;;;21.39;57.15
28344;BME280;15597;50.914;6.638;2022-10-26T11:35:17;100851.44;;;21.45;56.82
28344;BME280;15597;50.914;6.638;2022-10-26T11:38:09;100851.34;;;21.33;57.00
28344;BME280;15597;50.914;6.638;2022-10-26T11:40:51;100854.38;;;21.41;57.45
28344;BME280;15597;50.914;6.638;2022-10-26T11:43:29;100850.28;;;21.50;56.70
28344;BME280;15597;50.914;6.638;2022-10-26T11:48:50;100851.69;;;21.55;57.23
28344;BME280;15597;50.914;6.638;2022-10-26T11:56:51;100852.72;;;21.82;56.44
28344;BME280;15597;50.914;6.638;2022-10-26T11:59:21;100858.53;;;22.01;56.08
28344;BME280;15597;50.914;6.638;2022-10-26T12:01:54;100862.44;;;22.10;56.07
28344;BME280;15597;50.914;6.638;2022-10-26T12:04:24;100864.88;;;22.13;55.33
28344;BME280;15597;50.914;6.638;2022-10-26T12:06:53;100860.09;;;22.18;55.64
28344;BME280;15597;50.914;6.638;2022-10-26T12:09:23;100871.19;;;22.25;55.90
28344;BME280;15597;50.914;6.638;2022-10-26T12:12:06;100875.28;;;22.31;55.55
28344;BME280;15597;50.914;6.638;2022-10-26T12:19:54;100881.06;;;22.38;55.24
28344;BME280;15597;50.914;6.638;2022-10-26T12:22:30;100886.19;;;22.41;55.25
28344;BME280;15597;50.914;6.638;2022-10-26T12:25:20;100889.63;;;22.43;55.51
28344;BME280;15597;50.914;6.638;2022-10-26T12:43:32;100902.69;;;22.60;54.24
28344;BME280;15597;50.914;6.638;2022-10-26T12:48:50;100910.47;;;22.64;54.34
28344;BME280;15597;50.914;6.638;2022-10-26T12:54:32;100913.56;;;22.70;54.74
28344;BME280;15597;50.914;6.638;2022-10-26T12:57:07;100911.44;;;22.75;54.82
28344;BME280;15597;50.914;6.638;2022-10-26T12:59:43;100913.16;;;22.76;54.37
28344;BME280;15597;50.914;6.638;2022-10-26T13:07:44;100917.94;;;22.71;53.79
28344;BME280;15597;50.914;6.638;2022-10-26T13:12:56;100921.06;;;22.78;53.50
28344;BME280;15597;50.914;6.638;2022-10-26T13:15:50;100926.84;;;22.98;53.32
28344;BME280;15597;50.914;6.638;2022-10-26T13:18:16;100917.47;;;23.05;52.61
28344;BME280;15597;50.914;6.638;2022-10-26T13:23:32;100926.31;;;23.18;52.44
28344;BME280;15597;50.914;6.638;2022-10-26T13:26:11;100925.03;;;23.11;52.05
28344;BME280;15597;50.914;6.638;2022-10-26T13:31:52;100937.97;;;23.17;52.07
28344;BME280;15597;50.914;6.638;2022-10-26T13:34:17;100934.69;;;23.27;52.40
28344;BME280;15597;50.914;6.638;2022-10-26T13:37:16;100939.28;;;23.38;52.42
28344;BME280;15597;50.914;6.638;2022-10-26T13:39:46;100947.06;;;23.54;52.42
28344;BME280;15597;50.914;6.638;2022-10-26T13:42:18;100944.06;;;23.58;52.42
28344;BME280;15597;50.914;6.638;2022-10-26T13:44:51;100945.91;;;23.58;52.27
28344;BME280;15597;50.914;6.638;2022-10-26T13:47:26;100952.72;;;23.62;52.88
28344;BME280;15597;50.914;6.638;2022-10-26T13:49:55;100948.44;;;23.72;52.21
28344;BME280;15597;50.914;6.638;2022-10-26T13:52:31;100955.25;;;23.76;52.98
28344;BME280;15597;50.914;6.638;2022-10-26T13:55:01;100949.25;;;23.86;52.13
28344;BME280;15597;50.914;6.638;2022-10-26T13:57:41;100944.34;;;23.80;51.90
28344;BME280;15597;50.914;6.638;2022-10-26T14:00:15;100947.03;;;23.80;51.57
28344;BME280;15597;50.914;6.638;2022-10-26T14:02:41;100954.91;;;23.81;50.93
28344;BME280;15597;50.914;6.638;2022-10-26T14:05:10;100947.78;;;23.82;50.66
28344;BME280;15597;50.914;6.638;2022-10-26T14:07:48;100957.72;;;23.80;51.00
28344;BME280;15597;50.914;6.638;2022-10-26T14:10:41;100953.53;;;23.88;51.00
28344;BME280;15597;50.914;6.638;2022-10-26T14:13:15;100960.56;;;24.02;50.61
28344;BME280;15597;50.914;6.638;2022-10-26T14:15:43;100953.72;;;24.11;50.19
28344;BME280;15597;50.914;6.638;2022-10-26T14:18:22;100949.66;;;24.05;50.14
28344;BME280;15597;50.914;6.638;2022-10-26T14:21:03;100954.25;;;24.03;50.42
28344;BME280;15597;50.914;6.638;2022-10-26T14:25:57;100958.25;;;24.22;49.32
28344;BME280;15597;50.914;6.638;2022-10-26T14:28:28;100962.41;;;24.26;49.16
28344;BME280;15597;50.914;6.638;2022-10-26T14:30:53;100970.72;;;24.34;48.73
28344;BME280;15597;50.914;6.638;2022-10-26T14:33:34;100968.59;;;24.40;48.72
28344;BME280;15597;50.914;6.638;2022-10-26T14:36:00;100973.06;;;24.39;48.29
28344;BME280;15597;50.914;6.638;2022-10-26T14:38:28;100968.78;;;24.36;48.33
28344;BME280;15597;50.914;6.638;2022-10-26T14:40:56;100965.38;;;24.34;48.07
28344;BME280;15597;50.914;6.638;2022-10-26T14:43:23;100972.03;;;24.29;48.09
28344;BME280;15597;50.914;6.638;2022-10-26T14:45:51;100972.63;;;23.95;49.21
28344;BME280;15597;50.914;6.638;2022-10-26T14:48:27;100975.31;;;23.95;48.87
28344;BME280;15597;50.914;6.638;2022-10-26T14:51:14;100973.28;;;23.99;48.72
28344;BME280;15597;50.914;6.638;2022-10-26T14:53:47;100975.97;;;23.99;48.50
28344;BME280;15597;50.914;6.638;2022-10-26T14:59:10;100976.84;;;23.86;48.50
28344;BME280;15597;50.914;6.638;2022-10-26T15:09:45;100983.94;;;23.48;48.72
28344;BME280;15597;50.914;6.638;2022-10-26T15:14:44;101004.44;;;23.35;49.00
28344;BME280;15597;50.914;6.638;2022-10-26T15:17:20;100998.59;;;23.15;48.97
28344;BME280;15597;50.914;6.638;2022-10-26T15:19:47;101009.69;;;23.09;48.84
28344;BME280;15597;50.914;6.638;2022-10-26T15:22:22;101009.69;;;22.96;48.90
28344;BME280;15597;50.914;6.638;2022-10-26T15:24:54;101014.38;;;22.93;49.06
28344;BME280;15597;50.914;6.638;2022-10-26T15:27:21;101010.53;;;22.97;49.22
28344;BME280;15597;50.914;6.638;2022-10-26T15:29:49;101023.88;;;22.97;49.40
28344;BME280;15597;50.914;6.638;2022-10-26T15:34:48;101024.97;;;22.67;49.41
28344;BME280;15597;50.914;6.638;2022-10-26T15:37:14;101022.84;;;22.72;49.76
28344;BME280;15597;50.914;6.638;2022-10-26T15:39:40;101020.19;;;22.72;49.57
28344;BME280;15597;50.914;6.638;2022-10-26T15:42:11;101029.22;;;22.69;49.59
28344;BME280;15597;50.914;6.638;2022-10-26T15:44:37;101045.03;;;22.72;49.54